createdAt,value
2018-08-28T00:00:09.438Z,17.70
2018-08-28T00:02:37.866Z,17.60
2018-08-28T00:05:06.441Z,17.70
2018-08-28T00:07:34.925Z,17.60
2018-08-28T00:10:03.344Z,17.60
2018-08-28T00:12:31.857Z,17.60
2018-08-28T00:15:00.375Z,17.50
2018-08-28T00:17:28.761Z,17.50
2018-08-28T00:19:57.175Z,17.40
2018-08-28T00:22:25.614Z,17.40
2018-08-28T00:24:54.037Z,17.40
2018-08-28T00:27:22.423Z,17.40
2018-08-28T00:29:50.955Z,17.30
2018-08-28T00:32:19.451Z,17.30
2018-08-28T00:34:47.890Z,17.30
2018-08-28T00:37:16.271Z,17.30
2018-08-28T00:39:44.711Z,17.20
2018-08-28T00:42:13.200Z,17.20
2018-08-28T00:44:41.593Z,17.20
2018-08-28T00:47:10.053Z,17.10
2018-08-28T00:49:38.474Z,17.10
2018-08-28T00:52:07.250Z,17.10
2018-08-28T00:54:35.637Z,17.00
2018-08-28T00:57:04.086Z,17.00
2018-08-28T00:59:32.534Z,17.00
2018-08-28T01:02:00.960Z,16.90
2018-08-28T01:04:29.414Z,16.90
2018-08-28T01:06:57.858Z,16.90
2018-08-28T01:09:26.302Z,16.80
2018-08-28T01:11:54.864Z,16.80
2018-08-28T01:14:23.240Z,16.70
2018-08-28T01:16:51.771Z,16.60
2018-08-28T01:19:20.375Z,16.60
2018-08-28T01:21:48.763Z,16.60
2018-08-28T01:24:17.113Z,16.60
2018-08-28T01:26:45.504Z,16.50
2018-08-28T01:29:13.959Z,16.40
2018-08-28T01:31:42.806Z,16.30
2018-08-28T01:34:11.238Z,16.30
2018-08-28T01:36:39.634Z,16.30
2018-08-28T01:39:08.381Z,16.20
2018-08-28T01:41:36.969Z,16.20
2018-08-28T01:44:05.315Z,16.10
2018-08-28T01:46:33.667Z,16.10
2018-08-28T01:49:02.106Z,16.20
2018-08-28T01:51:30.430Z,16.30
2018-08-28T01:53:58.805Z,16.30
2018-08-28T01:56:27.393Z,16.30
2018-08-28T01:58:55.750Z,16.30
2018-08-28T02:01:24.087Z,16.30
2018-08-28T02:03:52.433Z,16.10
2018-08-28T02:06:20.808Z,16.20
2018-08-28T02:08:49.557Z,16.20
2018-08-28T02:11:17.935Z,16.20
2018-08-28T02:13:46.300Z,16.20
2018-08-28T02:16:14.729Z,16.20
2018-08-28T02:18:43.067Z,16.10
2018-08-28T02:21:11.457Z,16.10
2018-08-28T02:23:39.798Z,16.10
2018-08-28T02:26:08.189Z,16.00
2018-08-28T02:28:36.549Z,16.10
2018-08-28T02:31:04.949Z,16.10
2018-08-28T02:33:33.447Z,16.00
2018-08-28T02:36:02.023Z,16.00
2018-08-28T02:38:30.365Z,16.00
2018-08-28T02:40:58.735Z,16.00
2018-08-28T02:43:27.102Z,15.90
2018-08-28T02:45:55.468Z,16.00
2018-08-28T02:48:23.810Z,16.00
2018-08-28T02:50:52.195Z,16.00
2018-08-28T02:53:20.517Z,16.00
2018-08-28T02:55:48.853Z,15.90
2018-08-28T02:58:17.176Z,15.90
2018-08-28T03:00:45.610Z,15.90
2018-08-28T03:03:13.965Z,15.90
2018-08-28T03:05:42.322Z,15.80
2018-08-28T03:08:10.938Z,15.90
2018-08-28T03:10:39.329Z,15.90
2018-08-28T03:13:07.702Z,15.80
2018-08-28T03:15:36.335Z,15.80
2018-08-28T03:18:05.608Z,15.80
2018-08-28T03:20:33.962Z,15.80
2018-08-28T03:23:02.391Z,15.70
2018-08-28T03:25:30.746Z,15.60
2018-08-28T03:27:59.095Z,15.60
2018-08-28T03:30:27.451Z,15.40
2018-08-28T03:32:55.839Z,15.40
2018-08-28T03:35:24.338Z,15.30
2018-08-28T03:37:52.697Z,15.30
2018-08-28T03:40:21.099Z,15.30
2018-08-28T03:42:49.478Z,15.30
2018-08-28T03:45:17.863Z,15.20
2018-08-28T03:47:46.233Z,15.20
2018-08-28T03:50:14.598Z,15.20
2018-08-28T03:52:43.066Z,15.40
2018-08-28T03:55:11.385Z,15.50
2018-08-28T03:57:39.784Z,15.50
2018-08-28T04:00:08.165Z,15.40
2018-08-28T04:02:36.523Z,15.40
2018-08-28T04:05:04.881Z,15.40
2018-08-28T04:07:33.272Z,15.40
2018-08-28T04:10:01.622Z,15.30
2018-08-28T04:12:29.984Z,15.20
2018-08-28T04:14:58.412Z,15.00
2018-08-28T04:17:26.773Z,14.90
2018-08-28T04:19:55.141Z,14.90
2018-08-28T04:22:23.538Z,14.80
2018-08-28T04:24:51.916Z,14.80
2018-08-28T04:27:20.302Z,14.80
2018-08-28T04:29:48.690Z,14.70
2018-08-28T04:32:17.026Z,14.70
2018-08-28T04:34:45.406Z,14.60
2018-08-28T04:37:13.858Z,14.60
2018-08-28T04:39:42.161Z,14.70
2018-08-28T04:42:10.538Z,14.70
2018-08-28T04:44:38.920Z,14.70
2018-08-28T04:47:07.298Z,14.70
2018-08-28T04:49:35.654Z,14.70
2018-08-28T04:52:04.045Z,14.70
2018-08-28T04:54:32.488Z,14.80
2018-08-28T04:57:00.966Z,14.70
2018-08-28T04:59:29.350Z,15.00
2018-08-28T05:01:57.740Z,15.10
2018-08-28T05:04:26.193Z,15.10
2018-08-28T05:06:54.556Z,15.00
2018-08-28T05:09:22.938Z,15.00
2018-08-28T05:11:51.405Z,15.00
2018-08-28T05:14:19.738Z,15.00
2018-08-28T05:16:48.152Z,15.10
2018-08-28T05:19:16.543Z,15.10
2018-08-28T05:21:44.907Z,15.10
2018-08-28T05:24:13.315Z,15.20
2018-08-28T05:26:41.793Z,15.30
2018-08-28T05:29:10.215Z,15.30
2018-08-28T05:31:38.578Z,15.50
2018-08-28T05:34:07.455Z,15.60
2018-08-28T05:36:36.040Z,15.70
2018-08-28T05:39:05.784Z,15.80
2018-08-28T05:41:34.145Z,15.90
2018-08-28T05:44:02.517Z,15.90
2018-08-28T05:46:30.890Z,16.00
2018-08-28T05:48:59.282Z,16.00
2018-08-28T05:51:27.617Z,16.10
2018-08-28T05:53:55.969Z,16.10
2018-08-28T05:56:24.402Z,16.10
2018-08-28T05:58:52.791Z,16.30
2018-08-28T06:01:21.162Z,16.30
2018-08-28T06:03:49.570Z,16.50
2018-08-28T06:06:17.922Z,16.50
2018-08-28T06:08:46.320Z,16.70
2018-08-28T06:11:45.738Z,16.80
2018-08-28T06:14:14.141Z,16.80
2018-08-28T06:16:42.549Z,17.00
2018-08-28T06:19:11.010Z,17.00
2018-08-28T06:21:39.396Z,17.00
2018-08-28T06:24:07.763Z,17.10
2018-08-28T06:26:36.180Z,17.10
2018-08-28T06:29:04.862Z,17.10
2018-08-28T06:31:33.232Z,17.20
2018-08-28T06:34:01.686Z,17.20
2018-08-28T06:36:30.101Z,17.40
2018-08-28T06:38:58.480Z,17.40
2018-08-28T06:41:26.894Z,17.40
2018-08-28T06:43:55.439Z,17.60
2018-08-28T06:46:23.841Z,17.60
2018-08-28T06:48:52.257Z,17.60
2018-08-28T06:51:20.641Z,17.70
2018-08-28T06:53:49.211Z,17.80
2018-08-28T06:56:17.582Z,18.00
2018-08-28T06:58:45.981Z,18.10
2018-08-28T07:01:14.379Z,18.20
2018-08-28T07:03:42.856Z,18.30
2018-08-28T07:06:11.295Z,18.40
2018-08-28T07:08:39.678Z,18.50
2018-08-28T07:11:08.187Z,18.70
2018-08-28T07:13:36.607Z,18.80
2018-08-28T07:16:05.231Z,18.90
2018-08-28T07:18:33.678Z,18.90
2018-08-28T07:21:02.199Z,19.00
2018-08-28T07:23:30.697Z,19.10
2018-08-28T07:25:59.178Z,19.20
2018-08-28T07:28:27.499Z,19.30
2018-08-28T07:30:55.902Z,19.40
2018-08-28T07:33:24.369Z,19.40
2018-08-28T07:35:52.806Z,19.50
2018-08-28T07:38:22.117Z,19.50
2018-08-28T07:40:50.503Z,19.80
2018-08-28T07:43:18.861Z,20.00
2018-08-28T07:45:47.246Z,20.00
2018-08-28T07:48:15.769Z,19.90
2018-08-28T07:50:44.065Z,19.90
2018-08-28T07:53:12.475Z,20.10
2018-08-28T07:55:40.894Z,20.00
2018-08-28T07:58:09.278Z,20.00
2018-08-28T08:00:37.744Z,20.30
2018-08-28T08:03:06.173Z,20.50
2018-08-28T08:05:34.618Z,20.60
2018-08-28T08:08:03.027Z,20.60
2018-08-28T08:10:31.479Z,20.60
2018-08-28T08:12:59.962Z,20.60
2018-08-28T08:15:28.420Z,20.60
2018-08-28T08:17:56.831Z,20.80
2018-08-28T08:20:25.325Z,20.80
2018-08-28T08:22:53.814Z,20.90
2018-08-28T08:25:22.285Z,20.90
2018-08-28T08:27:50.764Z,20.70
2018-08-28T08:30:19.184Z,20.70
2018-08-28T08:32:47.622Z,20.70
2018-08-28T08:35:16.161Z,20.80
2018-08-28T08:37:44.559Z,21.10
2018-08-28T08:40:13.450Z,21.20
2018-08-28T08:42:41.845Z,21.40
2018-08-28T08:45:10.333Z,21.60
2018-08-28T08:47:38.758Z,21.60
2018-08-28T08:50:07.121Z,21.90
2018-08-28T08:52:35.573Z,21.90
2018-08-28T08:55:04.237Z,22.00
2018-08-28T08:57:32.683Z,22.10
2018-08-28T09:00:00.998Z,22.20
2018-08-28T09:02:29.438Z,22.30
2018-08-28T09:04:57.783Z,22.40
2018-08-28T09:07:26.178Z,22.40
2018-08-28T09:09:54.597Z,22.60
2018-08-28T09:12:23.197Z,22.70
2018-08-28T09:14:51.565Z,22.80
2018-08-28T09:17:20.051Z,22.70
2018-08-28T09:19:48.472Z,22.80
2018-08-28T09:22:16.897Z,22.80
2018-08-28T09:24:45.287Z,22.80
2018-08-28T09:27:13.853Z,22.90
2018-08-28T09:29:42.407Z,22.60
2018-08-28T09:32:11.178Z,22.90
2018-08-28T09:34:39.584Z,22.80
2018-08-28T09:37:08.106Z,22.70
2018-08-28T09:39:36.573Z,22.70
2018-08-28T09:42:04.935Z,22.90
2018-08-28T09:44:33.346Z,22.50
2018-08-28T09:47:01.886Z,22.70
2018-08-28T09:49:30.519Z,23.00
2018-08-28T09:51:58.959Z,23.10
2018-08-28T09:54:27.424Z,23.50
2018-08-28T09:56:56.511Z,23.60
2018-08-28T09:59:24.946Z,23.50
2018-08-28T10:01:53.946Z,23.40
2018-08-28T10:04:22.311Z,23.50
2018-08-28T10:06:50.693Z,23.50
2018-08-28T10:09:19.376Z,23.40
2018-08-28T10:11:47.854Z,23.60
2018-08-28T10:14:16.255Z,23.50
2018-08-28T10:16:44.728Z,23.80
2018-08-28T10:19:13.204Z,23.70
2018-08-28T10:21:41.661Z,23.80
2018-08-28T10:24:10.104Z,23.90
2018-08-28T10:26:38.470Z,24.10
2018-08-28T10:29:06.959Z,24.20
2018-08-28T10:31:35.445Z,24.10
2018-08-28T10:34:04.173Z,24.10
2018-08-28T10:36:32.581Z,24.20
2018-08-28T10:39:01.267Z,24.10
2018-08-28T10:41:31.097Z,23.60
2018-08-28T10:43:59.545Z,23.70
2018-08-28T10:46:28.071Z,23.80
2018-08-28T10:48:56.439Z,23.90
2018-08-28T10:51:25.033Z,24.10
2018-08-28T10:53:53.401Z,24.30
2018-08-28T10:56:21.853Z,24.30
2018-08-28T10:58:50.282Z,24.10
2018-08-28T11:01:18.686Z,24.30
2018-08-28T11:03:47.135Z,24.50
2018-08-28T11:06:15.578Z,24.50
2018-08-28T11:08:44.045Z,24.30
2018-08-28T11:11:12.485Z,24.20
2018-08-28T11:13:40.879Z,24.50
2018-08-28T11:16:09.400Z,24.50
2018-08-28T11:18:37.787Z,24.40
2018-08-28T11:21:06.396Z,25.20
2018-08-28T11:23:34.817Z,25.10
2018-08-28T11:26:03.245Z,24.60
2018-08-28T11:28:31.611Z,25.00
2018-08-28T11:30:59.998Z,25.20
2018-08-28T11:33:28.373Z,25.50
2018-08-28T11:35:56.757Z,25.90
2018-08-28T11:38:25.187Z,26.40
2018-08-28T11:40:53.589Z,26.80
2018-08-28T11:43:22.151Z,27.10
2018-08-28T11:45:50.764Z,26.80
2018-08-28T11:48:19.110Z,26.80
2018-08-28T11:50:47.610Z,27.50
2018-08-28T11:53:16.055Z,27.40
2018-08-28T11:55:44.403Z,27.60
2018-08-28T11:58:12.870Z,27.80
2018-08-28T12:00:41.295Z,28.20
2018-08-28T12:03:09.770Z,28.30
2018-08-28T12:05:38.585Z,28.90
2018-08-28T12:08:06.948Z,29.00
2018-08-28T12:10:35.349Z,29.00
2018-08-28T12:13:03.800Z,28.90
2018-08-28T12:15:32.238Z,28.60
2018-08-28T12:18:00.714Z,28.80
2018-08-28T12:20:29.276Z,29.00
2018-08-28T12:22:57.737Z,30.10
2018-08-28T12:25:26.141Z,30.20
2018-08-28T12:27:54.570Z,30.40
2018-08-28T12:30:22.956Z,30.50
2018-08-28T12:32:51.394Z,29.50
2018-08-28T12:35:19.782Z,29.50
2018-08-28T12:37:48.448Z,29.30
2018-08-28T12:40:16.838Z,29.70
2018-08-28T12:42:45.327Z,29.60
2018-08-28T12:45:13.756Z,30.00
2018-08-28T12:47:42.485Z,31.10
2018-08-28T12:50:11.682Z,30.80
2018-08-28T12:52:40.100Z,30.50
2018-08-28T12:55:08.618Z,30.80
2018-08-28T12:57:37.103Z,30.20
2018-08-28T13:00:05.595Z,29.10
2018-08-28T13:02:34.282Z,28.50
2018-08-28T13:05:03.241Z,28.70
2018-08-28T13:07:31.844Z,28.60
2018-08-28T13:10:00.363Z,29.00
2018-08-28T13:12:28.834Z,29.20
2018-08-28T13:14:57.334Z,29.60
2018-08-28T13:17:25.884Z,31.10
2018-08-28T13:19:54.315Z,32.20
2018-08-28T13:22:22.723Z,32.40
2018-08-28T13:24:51.354Z,33.30
2018-08-28T13:27:22.572Z,32.50
2018-08-28T13:29:50.924Z,32.90
2018-08-28T13:32:19.306Z,33.10
2018-08-28T13:34:47.727Z,33.50
2018-08-28T13:39:59.503Z,33.30
2018-08-28T13:42:29.230Z,32.90
2018-08-28T13:44:57.992Z,33.00
2018-08-28T13:47:26.520Z,34.30
2018-08-28T13:49:54.893Z,34.80
2018-08-28T13:52:23.275Z,35.30
2018-08-28T13:54:51.651Z,34.60
2018-08-28T13:57:20.097Z,33.50
2018-08-28T13:59:48.630Z,33.70
2018-08-28T14:02:17.035Z,34.80
2018-08-28T14:04:45.410Z,36.20
2018-08-28T14:07:14.417Z,35.90
2018-08-28T14:09:42.851Z,35.80
2018-08-28T14:12:11.386Z,35.20
2018-08-28T14:14:40.118Z,35.50
2018-08-28T14:17:08.691Z,36.00
2018-08-28T14:19:37.455Z,36.20
2018-08-28T14:22:05.854Z,36.70
2018-08-28T14:24:34.453Z,37.20
2018-08-28T14:27:02.972Z,35.90
2018-08-28T14:29:31.519Z,35.50
2018-08-28T14:31:59.851Z,35.10
2018-08-28T14:34:28.234Z,34.30
2018-08-28T14:36:56.688Z,34.00
2018-08-28T14:39:25.147Z,33.70
2018-08-28T14:41:53.564Z,33.30
2018-08-28T14:44:22.122Z,33.50
2018-08-28T14:46:50.549Z,35.30
2018-08-28T14:49:19.306Z,37.10
2018-08-28T14:51:47.786Z,36.40
2018-08-28T14:54:16.247Z,37.40
2018-08-28T14:56:44.939Z,34.60
2018-08-28T14:59:13.109Z,33.90
2018-08-28T15:01:41.520Z,34.70
2018-08-28T15:04:09.951Z,35.00
2018-08-28T15:06:38.345Z,34.60
2018-08-28T15:11:42.893Z,34.60
2018-08-28T15:14:11.311Z,34.60
2018-08-28T15:16:39.817Z,36.00
2018-08-28T15:19:08.173Z,36.40
2018-08-28T15:21:36.544Z,37.40
2018-08-28T15:24:05.217Z,37.90
2018-08-28T15:26:34.661Z,37.40
2018-08-28T15:29:03.092Z,36.70
2018-08-28T15:31:31.539Z,34.80
2018-08-28T15:33:59.918Z,33.30
2018-08-28T15:36:28.296Z,33.90
2018-08-28T15:38:56.878Z,35.20
2018-08-28T15:41:25.253Z,35.50
2018-08-28T15:43:53.702Z,34.20
2018-08-28T15:46:22.172Z,33.80
2018-08-28T15:48:50.595Z,34.40
2018-08-28T15:51:19.149Z,34.00
2018-08-28T15:53:47.461Z,33.30
2018-08-28T15:56:16.003Z,33.60
2018-08-28T15:58:44.512Z,33.30
2018-08-28T16:01:12.898Z,33.00
2018-08-28T16:03:41.420Z,32.90
2018-08-28T16:06:09.788Z,33.10
2018-08-28T16:08:38.286Z,33.00
2018-08-28T16:11:06.671Z,33.60
2018-08-28T16:13:35.046Z,35.20
2018-08-28T16:16:03.493Z,34.30
2018-08-28T16:18:31.969Z,35.10
2018-08-28T16:21:00.350Z,35.40
2018-08-28T16:23:30.020Z,33.80
2018-08-28T16:25:58.787Z,34.30
2018-08-28T16:28:27.283Z,36.00
2018-08-28T16:30:55.634Z,36.70
2018-08-28T16:33:24.026Z,37.80
2018-08-28T16:35:52.846Z,36.90
2018-08-28T16:38:21.200Z,36.10
2018-08-28T16:40:49.635Z,35.40
2018-08-28T16:43:18.017Z,36.10
2018-08-28T16:45:46.397Z,36.30
2018-08-28T16:48:14.815Z,36.10
2018-08-28T16:50:43.140Z,34.90
2018-08-28T16:53:11.571Z,34.10
2018-08-28T16:55:40.043Z,34.20
2018-08-28T16:58:08.521Z,34.90
2018-08-28T17:00:37.186Z,34.10
2018-08-28T17:03:05.603Z,33.40
2018-08-28T17:05:34.041Z,33.10
2018-08-28T17:08:02.431Z,32.50
2018-08-28T17:10:30.875Z,31.70
2018-08-28T17:12:59.306Z,31.90
2018-08-28T17:15:27.745Z,31.00
2018-08-28T17:17:56.554Z,30.70
2018-08-28T17:20:24.955Z,30.50
2018-08-28T17:22:53.346Z,30.40
2018-08-28T17:25:28.394Z,30.80
2018-08-28T17:27:56.793Z,30.50
2018-08-28T17:30:25.283Z,30.70
2018-08-28T17:32:53.720Z,30.80
2018-08-28T17:35:22.187Z,30.20
2018-08-28T17:37:50.610Z,29.90
2018-08-28T17:40:19.016Z,29.00
2018-08-28T17:42:47.374Z,28.60
2018-08-28T17:45:15.790Z,28.00
2018-08-28T17:47:44.157Z,27.80
2018-08-28T17:50:12.553Z,27.70
2018-08-28T17:52:40.922Z,27.60
2018-08-28T17:55:09.501Z,27.70
2018-08-28T17:57:37.993Z,27.50
2018-08-28T18:00:07.299Z,27.00
2018-08-28T18:02:35.882Z,26.70
2018-08-28T18:05:04.408Z,26.30
2018-08-28T18:07:32.786Z,25.90
2018-08-28T18:10:01.422Z,25.50
2018-08-28T18:12:29.828Z,25.30
2018-08-28T18:14:58.318Z,25.00
2018-08-28T18:17:26.679Z,24.80
2018-08-28T18:19:55.318Z,24.60
2018-08-28T18:22:23.738Z,24.40
2018-08-28T18:24:52.125Z,24.30
2018-08-28T18:27:20.520Z,24.20
2018-08-28T18:29:49.162Z,24.10
2018-08-28T18:32:17.663Z,24.00
2018-08-28T18:34:46.295Z,23.90
2018-08-28T18:37:14.838Z,23.70
2018-08-28T18:39:43.226Z,23.60
2018-08-28T18:42:11.698Z,23.50
2018-08-28T18:44:40.084Z,23.40
2018-08-28T18:47:08.533Z,23.40
2018-08-28T18:49:36.975Z,23.30
2018-08-28T18:52:05.430Z,23.20
2018-08-28T18:54:33.879Z,23.10
2018-08-28T18:57:02.314Z,23.10
2018-08-28T18:59:30.731Z,23.00
2018-08-28T19:01:59.183Z,23.00
2018-08-28T19:04:27.659Z,22.90
2018-08-28T19:06:56.062Z,22.90
2018-08-28T19:09:24.535Z,22.90
2018-08-28T19:11:52.922Z,22.80
2018-08-28T19:14:21.355Z,22.70
2018-08-28T19:16:49.785Z,22.70
2018-08-28T19:19:18.224Z,22.60
2018-08-28T19:21:46.628Z,22.60
2018-08-28T19:24:15.017Z,22.50
2018-08-28T19:26:43.382Z,22.50
2018-08-28T19:29:11.770Z,22.40
2018-08-28T19:31:40.188Z,22.30
2018-08-28T19:34:08.521Z,22.30
2018-08-28T19:36:36.863Z,22.30
2018-08-28T19:39:05.694Z,22.20
2018-08-28T19:41:34.038Z,22.10
2018-08-28T19:44:02.456Z,22.10
2018-08-28T19:46:30.843Z,22.10
2018-08-28T19:48:59.214Z,22.10
2018-08-28T19:51:27.586Z,22.10
2018-08-28T19:53:55.991Z,22.00
2018-08-28T19:56:24.382Z,22.00
2018-08-28T19:58:52.721Z,21.90
2018-08-28T20:01:22.125Z,21.80
2018-08-28T20:03:50.536Z,21.80
2018-08-28T20:06:18.969Z,21.80
2018-08-28T20:08:47.395Z,21.70
2018-08-28T20:11:15.858Z,21.70
2018-08-28T20:13:44.254Z,21.50
2018-08-28T20:16:12.728Z,21.40
2018-08-28T20:18:41.119Z,21.40
2018-08-28T20:21:09.519Z,21.30
2018-08-28T20:23:37.933Z,21.20
2018-08-28T20:26:06.575Z,21.20
2018-08-28T20:28:35.036Z,21.10
2018-08-28T20:31:03.483Z,21.00
2018-08-28T20:33:31.955Z,21.00
2018-08-28T20:36:00.529Z,20.90
2018-08-28T20:38:28.887Z,20.80
2018-08-28T20:40:57.411Z,20.90
2018-08-28T20:43:25.767Z,20.70
2018-08-28T20:45:54.163Z,20.80
2018-08-28T20:48:22.569Z,20.80
2018-08-28T20:50:50.988Z,20.70
2018-08-28T20:53:19.355Z,20.70
2018-08-28T20:55:47.775Z,20.60
2018-08-28T20:58:16.322Z,20.60
2018-08-28T21:00:44.868Z,20.80
2018-08-28T21:03:13.257Z,20.60
2018-08-28T21:05:41.664Z,20.70
2018-08-28T21:08:10.053Z,20.60
2018-08-28T21:10:38.604Z,20.60
2018-08-28T21:13:07.040Z,20.40
2018-08-28T21:15:35.386Z,20.30
2018-08-28T21:18:03.738Z,20.30
2018-08-28T21:20:32.093Z,20.30
2018-08-28T21:23:00.562Z,20.30
2018-08-28T21:25:28.965Z,20.10
2018-08-28T21:27:57.375Z,20.10
2018-08-28T21:30:25.765Z,20.00
2018-08-28T21:32:54.111Z,20.00
2018-08-28T21:35:22.489Z,20.00
2018-08-28T21:37:50.828Z,19.90
2018-08-28T21:40:19.205Z,19.90
2018-08-28T21:42:47.555Z,19.80
2018-08-28T21:45:15.947Z,19.80
2018-08-28T21:47:44.296Z,19.80
2018-08-28T21:50:12.678Z,19.70
2018-08-28T21:52:41.037Z,19.60
2018-08-28T21:55:09.431Z,19.60
2018-08-28T21:57:37.809Z,19.60
2018-08-28T22:00:06.645Z,19.60
2018-08-28T22:02:35.026Z,19.40
2018-08-28T22:05:03.636Z,19.30
2018-08-28T22:07:37.357Z,19.30
2018-08-28T22:10:05.761Z,19.30
2018-08-28T22:12:34.166Z,19.20
2018-08-28T22:15:02.538Z,19.10
2018-08-28T22:17:30.914Z,19.00
2018-08-28T22:19:59.343Z,19.00
2018-08-28T22:22:27.744Z,19.00
2018-08-28T22:24:56.155Z,18.90
2018-08-28T22:27:24.544Z,18.90
2018-08-28T22:29:52.889Z,18.90
2018-08-28T22:32:21.267Z,18.70
2018-08-28T22:34:49.666Z,18.80
2018-08-28T22:37:18.012Z,18.70
2018-08-28T22:39:46.405Z,18.70
2018-08-28T22:42:14.810Z,18.60
2018-08-28T22:44:43.164Z,18.60
2018-08-28T22:47:11.556Z,18.70
2018-08-28T22:49:39.905Z,18.70
2018-08-28T22:52:08.274Z,18.50
2018-08-28T22:54:36.611Z,18.60
2018-08-28T22:57:05.269Z,18.60
2018-08-28T22:59:33.673Z,18.50
2018-08-28T23:02:02.072Z,18.50
2018-08-28T23:04:30.394Z,18.50
2018-08-28T23:06:58.745Z,18.60
2018-08-28T23:09:27.106Z,18.60
2018-08-28T23:11:55.474Z,18.60
2018-08-28T23:14:23.832Z,18.70
2018-08-28T23:16:52.228Z,18.70
2018-08-28T23:19:20.569Z,18.80
2018-08-28T23:21:48.928Z,18.80
2018-08-28T23:24:17.311Z,18.70
2018-08-28T23:26:45.730Z,18.70
2018-08-28T23:29:14.074Z,18.70
2018-08-28T23:31:42.431Z,18.70
2018-08-28T23:34:10.794Z,18.80
2018-08-28T23:36:39.135Z,18.70
2018-08-28T23:39:07.975Z,18.70
2018-08-28T23:41:36.321Z,18.60
2018-08-28T23:44:04.877Z,18.50
2018-08-28T23:46:33.257Z,18.60
2018-08-28T23:49:01.662Z,18.50
2018-08-28T23:51:30.000Z,18.50
2018-08-28T23:53:59.340Z,18.60
2018-08-28T23:56:27.721Z,18.70
2018-08-28T23:58:56.107Z,18.60
